createdAt,value
2019-03-21T00:01:16.101Z,100629.06
2019-03-21T00:04:30.143Z,100621.42
2019-03-21T00:07:44.382Z,100630.93
2019-03-21T00:11:41.779Z,100618.06
2019-03-21T00:15:24.388Z,100625.52
2019-03-21T00:18:38.374Z,100627.75
2019-03-21T00:21:52.649Z,100626.26
2019-03-21T00:25:07.799Z,100622.70
2019-03-21T00:28:21.875Z,100624.81
2019-03-21T00:31:36.168Z,100612.64
2019-03-21T00:34:50.166Z,100614.56
2019-03-21T00:38:04.262Z,100616.75
2019-03-21T00:41:18.284Z,100615.83
2019-03-21T00:44:32.673Z,100610.12
2019-03-21T00:47:46.732Z,100610.80
2019-03-21T00:51:00.735Z,100614.39
2019-03-21T00:54:15.054Z,100610.17
2019-03-21T00:57:29.048Z,100610.41
2019-03-21T01:00:46.118Z,100611.13
2019-03-21T01:04:00.096Z,100610.59
2019-03-21T01:07:14.078Z,100611.80
2019-03-21T01:10:28.066Z,100611.75
2019-03-21T01:13:42.056Z,100604.59
2019-03-21T01:16:56.150Z,100601.88
2019-03-21T01:20:12.096Z,100602.23
2019-03-21T01:23:26.098Z,100608.55
2019-03-21T01:26:40.174Z,100598.22
2019-03-21T01:29:54.150Z,100597.23
2019-03-21T01:33:08.140Z,100597.05
2019-03-21T01:36:23.132Z,100593.38
2019-03-21T01:39:37.112Z,100594.18
2019-03-21T01:42:51.102Z,100587.87
2019-03-21T01:46:07.969Z,100583.41
2019-03-21T01:49:22.495Z,100583.84
2019-03-21T01:52:36.493Z,100586.17
2019-03-21T01:55:50.476Z,100581.95
2019-03-21T01:59:04.464Z,100586.38
2019-03-21T02:02:18.496Z,100582.31
2019-03-21T02:05:32.477Z,100585.73
2019-03-21T02:08:46.569Z,100583.81
2019-03-21T02:12:00.597Z,100582.98
2019-03-21T02:15:14.800Z,100577.38
2019-03-21T02:18:28.839Z,100577.97
2019-03-21T02:21:42.813Z,100577.50
2019-03-21T02:24:57.424Z,100571.54
2019-03-21T02:28:11.546Z,100570.45
2019-03-21T02:31:25.886Z,100569.19
2019-03-21T02:34:40.158Z,100573.16
2019-03-21T02:37:54.154Z,100569.56
2019-03-21T02:41:08.901Z,100575.33
2019-03-21T02:44:23.173Z,100572.73
2019-03-21T02:47:37.448Z,100582.36
2019-03-21T02:50:51.451Z,100589.93
2019-03-21T02:54:05.436Z,100582.48
2019-03-21T02:57:19.667Z,100585.59
2019-03-21T03:00:33.886Z,100588.71
2019-03-21T03:03:47.897Z,100593.32
2019-03-21T03:07:01.899Z,100585.39
2019-03-21T03:10:19.145Z,100583.86
2019-03-21T03:13:33.136Z,100587.53
2019-03-21T03:16:47.216Z,100586.98
2019-03-21T03:20:01.226Z,100589.98
2019-03-21T03:23:15.233Z,100589.66
2019-03-21T03:26:29.200Z,100594.58
2019-03-21T03:29:43.218Z,100597.90
2019-03-21T03:32:57.299Z,100592.77
2019-03-21T03:36:11.792Z,100598.05
2019-03-21T03:39:25.782Z,100591.94
2019-03-21T03:42:40.245Z,100593.88
2019-03-21T03:45:54.355Z,100590.68
2019-03-21T03:49:08.353Z,100580.00
2019-03-21T03:52:22.350Z,100588.04
2019-03-21T03:55:36.706Z,100592.21
2019-03-21T03:58:51.677Z,100597.10
2019-03-21T04:02:05.783Z,100601.00
2019-03-21T04:05:20.261Z,100610.84
2019-03-21T04:08:34.672Z,100603.03
2019-03-21T04:11:48.877Z,100602.33
2019-03-21T04:15:03.426Z,100602.69
2019-03-21T04:18:17.747Z,100604.64
2019-03-21T04:21:32.085Z,100610.37
2019-03-21T04:24:46.083Z,100603.74
2019-03-21T04:28:00.980Z,100605.53
2019-03-21T04:31:14.953Z,100598.81
2019-03-21T04:34:29.507Z,100600.97
2019-03-21T04:37:43.556Z,100599.71
2019-03-21T04:40:57.531Z,100602.38
2019-03-21T04:44:11.513Z,100600.65
2019-03-21T04:47:25.493Z,100597.89
2019-03-21T04:50:39.500Z,100598.23
2019-03-21T04:53:53.743Z,100598.29
2019-03-21T04:57:07.785Z,100597.09
2019-03-21T05:00:24.503Z,100600.32
2019-03-21T05:03:38.794Z,100601.91
2019-03-21T05:06:52.751Z,100600.65
2019-03-21T05:10:08.804Z,100605.48
2019-03-21T05:13:22.779Z,100597.94
2019-03-21T05:16:36.743Z,100607.19
2019-03-21T05:19:50.734Z,100608.22
2019-03-21T05:23:04.717Z,100604.43
2019-03-21T05:26:19.080Z,100617.18
2019-03-21T05:29:33.352Z,100617.06
2019-03-21T05:32:47.429Z,100623.25
2019-03-21T05:36:01.445Z,100621.75
2019-03-21T05:39:15.435Z,100623.25
2019-03-21T05:42:29.640Z,100628.99
2019-03-21T05:45:43.837Z,100630.14
2019-03-21T05:48:57.860Z,100633.55
2019-03-21T05:52:12.013Z,100629.89
2019-03-21T05:55:26.889Z,100627.14
2019-03-21T05:58:40.956Z,100626.87
2019-03-21T06:01:54.991Z,100631.50
2019-03-21T06:05:09.125Z,100630.80
2019-03-21T06:08:29.115Z,100632.19
2019-03-21T06:11:46.133Z,100629.75
2019-03-21T06:15:00.745Z,100630.13
2019-03-21T06:18:30.758Z,100633.80
2019-03-21T06:22:24.683Z,100638.02
2019-03-21T06:25:58.850Z,100637.44
2019-03-21T06:29:12.822Z,100638.03
2019-03-21T06:32:27.142Z,100637.81
2019-03-21T06:35:41.119Z,100640.64
2019-03-21T06:38:55.365Z,100637.89
2019-03-21T06:42:09.660Z,100638.98
2019-03-21T06:45:23.747Z,100637.58
2019-03-21T06:48:37.745Z,100629.85
2019-03-21T06:51:52.292Z,100638.65
2019-03-21T06:55:06.274Z,100640.11
2019-03-21T06:58:20.285Z,100637.89
2019-03-21T07:01:34.274Z,100638.08
2019-03-21T07:04:48.502Z,100645.18
2019-03-21T07:08:02.589Z,100633.72
2019-03-21T07:11:16.573Z,100629.61
2019-03-21T07:14:30.533Z,100628.70
2019-03-21T07:17:45.296Z,100631.27
2019-03-21T07:21:01.110Z,100632.93
2019-03-21T07:24:15.165Z,100634.20
2019-03-21T07:27:29.164Z,100632.48
2019-03-21T07:30:43.158Z,100630.00
2019-03-21T07:33:57.423Z,100621.95
2019-03-21T07:37:11.703Z,100621.34
2019-03-21T07:40:25.687Z,100617.17
2019-03-21T07:43:39.656Z,100618.32
2019-03-21T07:46:53.667Z,100616.45
2019-03-21T07:50:09.240Z,100612.19
2019-03-21T07:53:23.544Z,100610.13
2019-03-21T07:56:37.537Z,100612.17
2019-03-21T07:59:51.516Z,100603.88
2019-03-21T08:03:05.508Z,100600.27
2019-03-21T08:06:19.824Z,100603.81
2019-03-21T08:09:33.860Z,100600.80
2019-03-21T08:12:47.792Z,100597.57
2019-03-21T08:16:01.789Z,100598.79
2019-03-21T08:19:15.786Z,100592.55
2019-03-21T08:22:29.770Z,100597.38
2019-03-21T08:25:43.744Z,100597.65
2019-03-21T08:28:57.730Z,100592.41
2019-03-21T08:32:11.728Z,100585.67
2019-03-21T08:35:25.839Z,100580.20
2019-03-21T08:38:39.966Z,100581.83
2019-03-21T08:41:54.342Z,100583.59
2019-03-21T08:45:08.521Z,100581.48
2019-03-21T08:48:22.520Z,100583.34
2019-03-21T08:51:37.035Z,100579.23
2019-03-21T08:54:51.021Z,100576.05
2019-03-21T08:58:05.000Z,100574.59
2019-03-21T09:01:18.975Z,100578.67
2019-03-21T09:04:32.959Z,100580.92
2019-03-21T09:07:46.956Z,100575.06
2019-03-21T09:11:01.324Z,100572.55
2019-03-21T09:14:15.312Z,100572.65
2019-03-21T09:17:29.293Z,100574.85
2019-03-21T09:20:43.283Z,100578.73
2019-03-21T09:23:57.536Z,100570.40
2019-03-21T09:27:11.622Z,100565.87
2019-03-21T09:30:25.858Z,100567.52
2019-03-21T09:33:40.421Z,100562.39
2019-03-21T09:36:54.398Z,100563.05
2019-03-21T09:40:09.715Z,100562.25
2019-03-21T09:43:24.009Z,100557.48
2019-03-21T09:46:37.979Z,100558.61
2019-03-21T09:49:51.956Z,100560.83
2019-03-21T09:53:06.082Z,100558.39
2019-03-21T09:56:20.267Z,100553.09
2019-03-21T09:59:34.276Z,100557.59
2019-03-21T10:02:48.544Z,100546.34
2019-03-21T10:06:02.793Z,100539.63
2019-03-21T10:09:17.080Z,100538.73
2019-03-21T10:12:31.079Z,100535.27
2019-03-21T10:15:45.347Z,100532.64
2019-03-21T10:18:59.335Z,100529.69
2019-03-21T10:22:13.305Z,100519.24
2019-03-21T10:25:27.315Z,100525.37
2019-03-21T10:28:41.551Z,100520.59
2019-03-21T10:31:55.546Z,100528.01
2019-03-21T10:35:09.627Z,100514.08
2019-03-21T10:38:23.730Z,100517.68
2019-03-21T10:41:37.984Z,100508.22
2019-03-21T10:44:52.272Z,100512.36
2019-03-21T10:48:06.799Z,100506.53
2019-03-21T10:51:20.815Z,100502.23
2019-03-21T10:54:34.817Z,100502.86
2019-03-21T10:57:48.806Z,100505.07
2019-03-21T11:01:03.120Z,100505.64
2019-03-21T11:04:17.118Z,100500.83
2019-03-21T11:07:31.454Z,100492.91
2019-03-21T11:10:47.193Z,100497.59
2019-03-21T11:14:01.339Z,100486.83
2019-03-21T11:17:15.331Z,100490.89
2019-03-21T11:20:31.414Z,100485.81
2019-03-21T11:23:45.397Z,100484.41
2019-03-21T11:26:59.798Z,100480.63
2019-03-21T11:30:17.507Z,100469.88
2019-03-21T11:33:31.479Z,100456.05
2019-03-21T11:36:45.708Z,100451.91
2019-03-21T11:39:59.985Z,100455.66
2019-03-21T11:43:15.865Z,100453.02
2019-03-21T11:46:30.100Z,100448.95
2019-03-21T11:49:44.179Z,100445.98
2019-03-21T11:52:58.406Z,100447.30
2019-03-21T11:56:13.174Z,100433.66
2019-03-21T11:59:41.220Z,100430.32
2019-03-21T12:02:43.221Z,100440.05
2019-03-21T12:05:57.310Z,100426.86
2019-03-21T12:09:11.388Z,100423.80
2019-03-21T12:12:25.753Z,100419.00
2019-03-21T12:15:39.706Z,100414.55
2019-03-21T12:18:53.715Z,100401.55
2019-03-21T12:22:07.726Z,100399.20
2019-03-21T12:25:21.720Z,100390.00
2019-03-21T12:28:36.152Z,100381.89
2019-03-21T12:31:50.184Z,100385.77
2019-03-21T12:35:05.160Z,100381.98
2019-03-21T12:38:19.136Z,100380.28
2019-03-21T12:41:33.410Z,100379.18
2019-03-21T12:44:49.444Z,100382.63
2019-03-21T12:48:04.948Z,100385.09
2019-03-21T12:51:18.952Z,100382.47
2019-03-21T12:54:33.241Z,100383.59
2019-03-21T12:57:47.363Z,100378.12
2019-03-21T13:01:01.379Z,100374.16
2019-03-21T13:04:15.524Z,100376.92
2019-03-21T13:07:29.507Z,100369.75
2019-03-21T13:10:43.720Z,100359.89
2019-03-21T13:13:57.728Z,100360.68
2019-03-21T13:17:11.728Z,100351.00
2019-03-21T13:20:25.712Z,100346.92
2019-03-21T13:23:39.707Z,100336.58
2019-03-21T13:26:53.715Z,100333.39
2019-03-21T13:30:08.269Z,100324.11
2019-03-21T13:33:22.268Z,100320.84
2019-03-21T13:36:36.371Z,100325.25
2019-03-21T13:39:50.358Z,100316.52
2019-03-21T13:43:04.671Z,100310.20
2019-03-21T13:46:18.700Z,100311.13
2019-03-21T13:49:33.239Z,100312.28
2019-03-21T13:52:47.251Z,100302.97
2019-03-21T13:56:01.492Z,100294.63
2019-03-21T13:59:15.515Z,100290.86
2019-03-21T14:02:29.504Z,100282.25
2019-03-21T14:05:43.606Z,100286.21
2019-03-21T14:08:57.863Z,100275.88
2019-03-21T14:12:11.856Z,100285.55
2019-03-21T14:15:26.474Z,100275.94
2019-03-21T14:18:40.478Z,100272.16
2019-03-21T14:21:54.743Z,100263.60
2019-03-21T14:25:09.289Z,100261.96
2019-03-21T14:28:23.599Z,100259.20
2019-03-21T14:31:37.624Z,100252.34
2019-03-21T14:34:51.863Z,100250.37
2019-03-21T14:38:06.202Z,100257.70
2019-03-21T14:41:20.296Z,100258.88
2019-03-21T14:44:34.296Z,100248.86
2019-03-21T14:47:48.316Z,100247.13
2019-03-21T14:51:02.332Z,100247.07
2019-03-21T14:54:16.344Z,100248.53
2019-03-21T14:57:30.330Z,100243.46
2019-03-21T15:00:44.347Z,100253.64
2019-03-21T15:03:58.318Z,100249.14
2019-03-21T15:07:12.620Z,100245.71
2019-03-21T15:10:26.752Z,100239.87
2019-03-21T15:13:40.756Z,100244.37
2019-03-21T15:16:54.743Z,100236.48
2019-03-21T15:20:11.232Z,100234.19
2019-03-21T15:23:26.007Z,100229.16
2019-03-21T15:26:40.165Z,100241.08
2019-03-21T15:29:54.230Z,100245.59
2019-03-21T15:33:08.307Z,100239.91
2019-03-21T15:36:22.355Z,100231.43
2019-03-21T15:39:36.929Z,100230.13
2019-03-21T15:42:51.040Z,100229.61
2019-03-21T15:46:06.015Z,100224.77
2019-03-21T15:49:20.583Z,100221.28
2019-03-21T15:52:34.632Z,100221.69
2019-03-21T15:55:49.100Z,100214.68
2019-03-21T15:59:03.243Z,100206.58
2019-03-21T16:02:17.760Z,100218.45
2019-03-21T16:05:31.910Z,100224.86
2019-03-21T16:08:46.724Z,100212.50
2019-03-21T16:12:00.834Z,100214.74
2019-03-21T16:15:14.843Z,100220.37
2019-03-21T16:18:28.884Z,100212.78
2019-03-21T16:21:42.938Z,100209.58
2019-03-21T16:24:57.014Z,100213.73
2019-03-21T16:28:11.059Z,100204.97
2019-03-21T16:31:25.405Z,100211.64
2019-03-21T16:34:39.459Z,100209.90
2019-03-21T16:37:53.509Z,100212.30
2019-03-21T16:41:07.617Z,100213.50
2019-03-21T16:44:21.621Z,100209.58
2019-03-21T16:47:35.619Z,100211.47
2019-03-21T16:50:49.625Z,100214.92
2019-03-21T16:54:16.155Z,100207.17
2019-03-21T16:57:20.354Z,100210.77
2019-03-21T17:00:34.479Z,100218.00
2019-03-21T17:03:48.483Z,100216.46
2019-03-21T17:07:02.568Z,100218.09
2019-03-21T17:10:17.086Z,100221.60
2019-03-21T17:13:31.108Z,100229.11
2019-03-21T17:16:45.384Z,100230.03
2019-03-21T17:19:59.656Z,100227.34
2019-03-21T17:23:13.682Z,100227.47
2019-03-21T17:26:27.797Z,100225.30
2019-03-21T17:29:42.113Z,100234.25
2019-03-21T17:32:56.100Z,100241.73
2019-03-21T17:36:10.109Z,100241.97
2019-03-21T17:39:24.416Z,100245.27
2019-03-21T17:42:38.441Z,100244.57
2019-03-21T17:45:52.540Z,100248.86
2019-03-21T17:49:06.533Z,100254.53
2019-03-21T17:52:20.527Z,100269.16
2019-03-21T17:55:34.635Z,100266.75
2019-03-21T17:58:48.744Z,100259.88
2019-03-21T18:02:03.504Z,100271.80
2019-03-21T18:05:17.698Z,100268.77
2019-03-21T18:08:31.704Z,100268.06
2019-03-21T18:11:45.782Z,100273.77
2019-03-21T18:15:00.600Z,100279.70
2019-03-21T18:18:14.872Z,100282.27
2019-03-21T18:21:28.865Z,100287.17
2019-03-21T18:24:53.374Z,100292.56
2019-03-21T18:27:59.420Z,100288.89
2019-03-21T18:31:13.400Z,100293.33
2019-03-21T18:34:27.504Z,100294.92
2019-03-21T18:37:41.722Z,100304.92
2019-03-21T18:40:55.697Z,100307.28
2019-03-21T18:44:10.111Z,100308.55
2019-03-21T18:47:24.125Z,100314.59
2019-03-21T18:50:38.401Z,100324.18
2019-03-21T18:53:52.401Z,100322.32
2019-03-21T18:57:06.458Z,100321.45
2019-03-21T19:00:21.106Z,100325.17
2019-03-21T19:03:35.332Z,100328.18
2019-03-21T19:06:49.360Z,100339.89
2019-03-21T19:10:04.550Z,100336.18
2019-03-21T19:13:18.782Z,100334.82
2019-03-21T19:16:33.130Z,100326.67
2019-03-21T19:19:47.433Z,100324.93
2019-03-21T19:23:01.432Z,100323.81
2019-03-21T19:26:15.415Z,100326.77
2019-03-21T19:29:29.437Z,100335.55
2019-03-21T19:32:43.431Z,100332.47
2019-03-21T19:35:57.508Z,100335.77
2019-03-21T19:39:11.495Z,100338.14
2019-03-21T19:42:25.767Z,100336.57
2019-03-21T19:45:39.850Z,100335.28
2019-03-21T19:48:53.858Z,100338.73
2019-03-21T19:52:07.888Z,100333.30
2019-03-21T19:55:30.662Z,100342.42
2019-03-21T19:58:38.255Z,100344.94
2019-03-21T20:01:52.524Z,100346.58
2019-03-21T20:05:07.441Z,100342.77
2019-03-21T20:08:21.438Z,100346.41
2019-03-21T20:11:35.456Z,100352.21
2019-03-21T20:14:49.515Z,100350.36
2019-03-21T20:18:03.645Z,100348.31
2019-03-21T20:21:18.287Z,100343.75
2019-03-21T20:24:32.274Z,100345.20
2019-03-21T20:27:46.358Z,100349.02
2019-03-21T20:31:00.343Z,100356.61
2019-03-21T20:34:14.385Z,100360.72
2019-03-21T20:37:28.414Z,100355.80
2019-03-21T20:40:42.431Z,100360.31
2019-03-21T20:43:56.415Z,100362.46
2019-03-21T20:47:10.504Z,100363.20
2019-03-21T20:50:24.519Z,100362.02
2019-03-21T20:53:38.818Z,100359.93
2019-03-21T20:56:52.914Z,100361.20
2019-03-21T21:00:10.355Z,100360.26
2019-03-21T21:03:24.480Z,100359.93
2019-03-21T21:06:38.563Z,100358.83
2019-03-21T21:09:52.949Z,100356.97
2019-03-21T21:13:07.225Z,100356.67
2019-03-21T21:16:21.236Z,100357.05
2019-03-21T21:19:35.240Z,100360.65
2019-03-21T21:22:49.225Z,100356.58
2019-03-21T21:26:05.792Z,100359.28
2019-03-21T21:29:19.353Z,100357.33
2019-03-21T21:32:33.477Z,100362.61
2019-03-21T21:35:47.751Z,100360.92
2019-03-21T21:39:02.170Z,100362.61
2019-03-21T21:42:16.371Z,100364.03
2019-03-21T21:45:30.350Z,100358.36
2019-03-21T21:48:44.629Z,100353.19
2019-03-21T21:51:58.883Z,100357.95
2019-03-21T21:55:13.164Z,100358.84
2019-03-21T21:58:27.155Z,100359.16
2019-03-21T22:01:41.400Z,100362.16
2019-03-21T22:04:55.664Z,100354.01
2019-03-21T22:08:09.644Z,100350.73
2019-03-21T22:11:23.986Z,100352.90
2019-03-21T22:14:37.970Z,100352.54
2019-03-21T22:17:52.241Z,100351.66
2019-03-21T22:21:06.219Z,100355.00
2019-03-21T22:24:20.483Z,100354.20
2019-03-21T22:27:34.601Z,100356.27
2019-03-21T22:30:48.601Z,100355.48
2019-03-21T22:34:02.801Z,100354.43
2019-03-21T22:37:17.064Z,100352.28
2019-03-21T22:40:31.300Z,100345.78
2019-03-21T22:43:45.292Z,100347.64
2019-03-21T22:46:59.261Z,100347.20
2019-03-21T22:50:15.100Z,100346.97
2019-03-21T22:53:30.234Z,100349.12
2019-03-21T22:56:44.355Z,100341.13
2019-03-21T22:59:58.344Z,100341.94
2019-03-21T23:03:12.328Z,100335.47
2019-03-21T23:06:26.328Z,100329.92
2019-03-21T23:09:40.605Z,100328.56
2019-03-21T23:12:55.002Z,100325.70
2019-03-21T23:16:08.988Z,100320.84
2019-03-21T23:19:22.980Z,100314.35
2019-03-21T23:22:37.082Z,100316.43
2019-03-21T23:25:51.302Z,100315.67
2019-03-21T23:29:05.567Z,100315.08
2019-03-21T23:32:19.549Z,100316.28
2019-03-21T23:35:33.890Z,100311.34
2019-03-21T23:38:47.880Z,100316.70
2019-03-21T23:42:02.207Z,100315.77
2019-03-21T23:45:16.201Z,100308.05
2019-03-21T23:48:30.179Z,100306.17
2019-03-21T23:51:44.190Z,100307.98
2019-03-21T23:54:58.211Z,100305.30
2019-03-21T23:58:12.479Z,100310.52
